sensor_id;sensor_type;location;lat;lon;timestamp;pressure;altitude;pressure_sealevel;temperature;humidity
52469;BME280;38381;53.688;10.776;2023-08-07T00:03:00;100033.78;;;15.89;81.15
52469;BME280;38381;53.688;10.776;2023-08-07T00:08:01;100026.13;;;15.83;81.64
52469;BME280;38381;53.688;10.776;2023-08-07T00:13:01;100029.53;;;15.85;81.50
52469;BME280;38381;53.688;10.776;2023-08-07T00:18:02;100027.97;;;15.78;82.38
52469;BME280;38381;53.688;10.776;2023-08-07T00:23:02;100035.09;;;15.72;82.27
52469;BME280;38381;53.688;10.776;2023-08-07T00:28:03;100023.03;;;15.66;83.05
52469;BME280;38381;53.688;10.776;2023-08-07T00:33:03;100018.88;;;15.59;82.97
52469;BME280;38381;53.688;10.776;2023-08-07T00:38:04;100016.00;;;15.69;81.86
52469;BME280;38381;53.688;10.776;2023-08-07T00:43:04;100023.13;;;15.63;81.87
52469;BME280;38381;53.688;10.776;2023-08-07T00:48:05;100015.13;;;15.69;81.68
52469;BME280;38381;53.688;10.776;2023-08-07T00:53:06;100018.88;;;15.59;81.26
52469;BME280;38381;53.688;10.776;2023-08-07T00:58:07;100019.06;;;15.53;81.54
52469;BME280;38381;53.688;10.776;2023-08-07T01:03:07;100019.16;;;15.48;80.95
52469;BME280;38381;53.688;10.776;2023-08-07T01:08:08;100019.38;;;15.40;80.80
52469;BME280;38381;53.688;10.776;2023-08-07T01:13:18;100012.50;;;15.36;80.55
52469;BME280;38381;53.688;10.776;2023-08-07T01:18:21;100003.75;;;15.37;80.35
52469;BME280;38381;53.688;10.776;2023-08-07T01:23:21;99995.09;;;15.35;80.09
52469;BME280;38381;53.688;10.776;2023-08-07T01:28:27;99996.81;;;15.36;79.18
52469;BME280;38381;53.688;10.776;2023-08-07T01:33:42;99991.94;;;15.22;79.94
52469;BME280;38381;53.688;10.776;2023-08-07T01:38:44;99982.28;;;15.26;79.27
52469;BME280;38381;53.688;10.776;2023-08-07T01:43:45;99967.75;;;15.16;78.92
52469;BME280;38381;53.688;10.776;2023-08-07T01:48:46;99974.59;;;15.20;78.59
52469;BME280;38381;53.688;10.776;2023-08-07T01:53:47;99970.84;;;15.30;78.38
52469;BME280;38381;53.688;10.776;2023-08-07T01:58:48;99964.19;;;15.18;78.12
52469;BME280;38381;53.688;10.776;2023-08-07T02:03:48;99970.09;;;15.25;77.87
52469;BME280;38381;53.688;10.776;2023-08-07T02:08:48;99965.94;;;15.18;77.97
52469;BME280;38381;53.688;10.776;2023-08-07T02:13:49;99955.81;;;15.05;77.86
52469;BME280;38381;53.688;10.776;2023-08-07T02:18:49;99958.19;;;15.13;77.78
52469;BME280;38381;53.688;10.776;2023-08-07T02:23:50;99964.34;;;15.12;77.81
52469;BME280;38381;53.688;10.776;2023-08-07T02:28:50;99973.19;;;15.05;78.08
52469;BME280;38381;53.688;10.776;2023-08-07T02:33:51;99971.47;;;15.05;77.28
52469;BME280;38381;53.688;10.776;2023-08-07T02:38:51;99958.19;;;15.13;77.92
52469;BME280;38381;53.688;10.776;2023-08-07T02:43:51;99964.34;;;15.12;77.84
52469;BME280;38381;53.688;10.776;2023-08-07T02:48:52;99966.09;;;15.12;78.02
52469;BME280;38381;53.688;10.776;2023-08-07T02:53:53;99962.53;;;15.14;77.50
52469;BME280;38381;53.688;10.776;2023-08-07T02:58:54;99964.47;;;15.07;77.88
52469;BME280;38381;53.688;10.776;2023-08-07T03:03:54;99954.06;;;15.04;77.62
52469;BME280;38381;53.688;10.776;2023-08-07T03:08:55;99958.47;;;15.02;77.97
52469;BME280;38381;53.688;10.776;2023-08-07T03:13:55;99952.38;;;15.03;77.79
52469;BME280;38381;53.688;10.776;2023-08-07T03:18:55;99956.69;;;15.04;77.76
52469;BME280;38381;53.688;10.776;2023-08-07T03:23:56;99956.88;;;14.97;78.61
52469;BME280;38381;53.688;10.776;2023-08-07T03:28:56;99963.78;;;14.99;78.73
52469;BME280;38381;53.688;10.776;2023-08-07T03:33:57;99962.03;;;15.00;78.45
52469;BME280;38381;53.688;10.776;2023-08-07T03:38:58;99969.88;;;14.98;78.79
52469;BME280;38381;53.688;10.776;2023-08-07T03:43:59;99964.69;;;14.97;79.11
52469;BME280;38381;53.688;10.776;2023-08-07T03:48:59;99956.09;;;14.93;79.69
52469;BME280;38381;53.688;10.776;2023-08-07T03:53:59;99960.66;;;14.85;80.26
52469;BME280;38381;53.688;10.776;2023-08-07T03:59:00;99967.53;;;14.89;79.90
52469;BME280;38381;53.688;10.776;2023-08-07T04:04:00;99952.81;;;14.85;80.60
52469;BME280;38381;53.688;10.776;2023-08-07T04:09:01;99953.56;;;14.90;80.64
52469;BME280;38381;53.688;10.776;2023-08-07T04:14:03;99959.75;;;14.86;80.92
52469;BME280;38381;53.688;10.776;2023-08-07T04:19:04;99953.59;;;14.88;81.36
52469;BME280;38381;53.688;10.776;2023-08-07T04:24:04;99957.16;;;14.84;81.53
52469;BME280;38381;53.688;10.776;2023-08-07T04:29:10;99964.19;;;14.82;82.51
52469;BME280;38381;53.688;10.776;2023-08-07T04:34:11;99975.25;;;14.92;81.80
52469;BME280;38381;53.688;10.776;2023-08-07T04:39:12;99965.75;;;14.89;82.36
52469;BME280;38381;53.688;10.776;2023-08-07T04:44:13;99970.28;;;14.83;82.81
52469;BME280;38381;53.688;10.776;2023-08-07T04:49:13;99970.28;;;14.83;82.72
52469;BME280;38381;53.688;10.776;2023-08-07T04:54:14;99968.41;;;14.88;82.91
52469;BME280;38381;53.688;10.776;2023-08-07T04:59:14;99966.59;;;14.92;83.56
52469;BME280;38381;53.688;10.776;2023-08-07T05:04:15;99965.44;;;15.03;83.23
52469;BME280;38381;53.688;10.776;2023-08-07T05:09:15;99960.94;;;15.08;83.36
52469;BME280;38381;53.688;10.776;2023-08-07T05:14:17;99959.28;;;15.04;83.86
52469;BME280;38381;53.688;10.776;2023-08-07T05:19:17;99961.69;;;15.14;84.02
52469;BME280;38381;53.688;10.776;2023-08-07T05:24:18;99966.13;;;15.10;84.98
52469;BME280;38381;53.688;10.776;2023-08-07T05:29:18;99972.84;;;15.20;85.34
52469;BME280;38381;53.688;10.776;2023-08-07T05:34:18;99973.63;;;15.24;86.08
52469;BME280;38381;53.688;10.776;2023-08-07T05:39:19;99971.72;;;15.31;85.81
52469;BME280;38381;53.688;10.776;2023-08-07T05:44:20;99970.47;;;15.44;85.44
52469;BME280;38381;53.688;10.776;2023-08-07T05:49:21;99978.53;;;15.36;86.39
52469;BME280;38381;53.688;10.776;2023-08-07T05:54:21;99982.69;;;15.43;86.25
52469;BME280;38381;53.688;10.776;2023-08-07T05:59:22;99978.94;;;15.54;85.78
52469;BME280;38381;53.688;10.776;2023-08-07T06:04:22;99973.41;;;15.64;84.91
52469;BME280;38381;53.688;10.776;2023-08-07T06:09:22;99974.13;;;15.71;84.51
52469;BME280;38381;53.688;10.776;2023-08-07T06:14:23;99980.19;;;15.73;83.36
52469;BME280;38381;53.688;10.776;2023-08-07T06:19:25;99971.44;;;15.74;82.53
52469;BME280;38381;53.688;10.776;2023-08-07T06:24:27;99976.34;;;15.86;82.11
52469;BME280;38381;53.688;10.776;2023-08-07T06:29:28;99986.44;;;15.99;81.51
52469;BME280;38381;53.688;10.776;2023-08-07T06:34:28;99989.00;;;16.02;81.37
52469;BME280;38381;53.688;10.776;2023-08-07T06:39:28;99986.44;;;15.99;80.96
52469;BME280;38381;53.688;10.776;2023-08-07T06:44:30;99975.97;;;16.00;79.27
52469;BME280;38381;53.688;10.776;2023-08-07T06:49:30;99980.44;;;16.26;78.48
52469;BME280;38381;53.688;10.776;2023-08-07T06:54:32;99975.03;;;16.33;77.37
52469;BME280;38381;53.688;10.776;2023-08-07T06:59:32;99973.47;;;16.25;76.29
52469;BME280;38381;53.688;10.776;2023-08-07T07:04:32;99978.44;;;16.35;76.15
52469;BME280;38381;53.688;10.776;2023-08-07T07:09:33;99975.06;;;16.31;75.95
52469;BME280;38381;53.688;10.776;2023-08-07T07:14:34;99976.91;;;16.27;75.57
52469;BME280;38381;53.688;10.776;2023-08-07T07:19:34;99988.00;;;16.36;74.11
52469;BME280;38381;53.688;10.776;2023-08-07T07:24:35;99994.97;;;16.37;74.02
52469;BME280;38381;53.688;10.776;2023-08-07T07:29:35;99995.97;;;16.33;74.31
52469;BME280;38381;53.688;10.776;2023-08-07T07:34:35;99994.16;;;16.35;74.35
52469;BME280;38381;53.688;10.776;2023-08-07T07:39:36;99993.69;;;16.50;74.27
52469;BME280;38381;53.688;10.776;2023-08-07T07:44:36;100005.78;;;16.54;74.35
52469;BME280;38381;53.688;10.776;2023-08-07T07:49:39;100004.72;;;16.60;74.54
52469;BME280;38381;53.688;10.776;2023-08-07T07:54:39;100019.47;;;16.62;74.42
52469;BME280;38381;53.688;10.776;2023-08-07T07:59:40;100018.72;;;16.59;73.34
52469;BME280;38381;53.688;10.776;2023-08-07T08:04:40;100018.81;;;16.56;72.07
52469;BME280;38381;53.688;10.776;2023-08-07T08:09:40;100034.66;;;16.51;72.17
52469;BME280;38381;53.688;10.776;2023-08-07T08:14:41;100026.66;;;16.56;71.76
52469;BME280;38381;53.688;10.776;2023-08-07T08:19:41;100029.72;;;16.70;70.49
52469;BME280;38381;53.688;10.776;2023-08-07T08:24:42;100029.03;;;16.93;69.83
52469;BME280;38381;53.688;10.776;2023-08-07T08:29:42;100023.41;;;17.05;68.83
52469;BME280;38381;53.688;10.776;2023-08-07T08:34:43;100034.50;;;17.14;67.00
52469;BME280;38381;53.688;10.776;2023-08-07T08:39:43;100038.94;;;17.12;65.41
52469;BME280;38381;53.688;10.776;2023-08-07T08:44:51;100039.59;;;17.18;65.07
52469;BME280;38381;53.688;10.776;2023-08-07T08:50:04;100045.78;;;17.42;64.99
52469;BME280;38381;53.688;10.776;2023-08-07T08:55:07;100058.41;;;17.58;63.63
52469;BME280;38381;53.688;10.776;2023-08-07T09:00:09;100052.66;;;17.72;62.42
52469;BME280;38381;53.688;10.776;2023-08-07T09:05:19;100044.06;;;17.68;61.90
52469;BME280;38381;53.688;10.776;2023-08-07T09:10:24;100040.22;;;17.78;61.72
52469;BME280;38381;53.688;10.776;2023-08-07T09:15:25;100062.28;;;17.98;60.95
52469;BME280;38381;53.688;10.776;2023-08-07T09:20:26;100053.41;;;18.02;60.77
52469;BME280;38381;53.688;10.776;2023-08-07T09:25:28;100055.03;;;18.04;61.15
52469;BME280;38381;53.688;10.776;2023-08-07T09:30:29;100057.94;;;18.22;61.31
52469;BME280;38381;53.688;10.776;2023-08-07T09:35:30;100058.97;;;18.18;61.19
52469;BME280;38381;53.688;10.776;2023-08-07T09:40:32;100057.75;;;18.26;60.45
52469;BME280;38381;53.688;10.776;2023-08-07T09:45:32;100058.03;;;18.19;60.23
52469;BME280;38381;53.688;10.776;2023-08-07T09:50:35;100060.03;;;18.12;61.56
52469;BME280;38381;53.688;10.776;2023-08-07T09:55:35;100065.09;;;17.93;64.01
52469;BME280;38381;53.688;10.776;2023-08-07T10:00:36;100082.59;;;17.93;64.23
52469;BME280;38381;53.688;10.776;2023-08-07T10:05:36;100083.91;;;18.04;64.32
52469;BME280;38381;53.688;10.776;2023-08-07T10:10:38;100090.06;;;18.28;63.97
52469;BME280;38381;53.688;10.776;2023-08-07T10:15:39;100089.25;;;18.26;64.60
52469;BME280;38381;53.688;10.776;2023-08-07T10:20:40;100080.25;;;18.34;64.35
52469;BME280;38381;53.688;10.776;2023-08-07T10:25:45;100090.53;;;18.15;64.26
52469;BME280;38381;53.688;10.776;2023-08-07T10:30:46;100107.75;;;17.98;64.03
52469;BME280;38381;53.688;10.776;2023-08-07T10:35:49;100118.78;;;17.81;64.31
52469;BME280;38381;53.688;10.776;2023-08-07T10:41:06;100104.84;;;17.26;62.77
52469;BME280;38381;53.688;10.776;2023-08-07T10:46:15;100116.56;;;17.14;63.94
52469;BME280;38381;53.688;10.776;2023-08-07T10:51:19;100108.31;;;17.26;64.50
52469;BME280;38381;53.688;10.776;2023-08-07T10:56:31;100106.28;;;17.08;66.48
52469;BME280;38381;53.688;10.776;2023-08-07T11:01:41;100109.34;;;17.49;66.18
52469;BME280;38381;53.688;10.776;2023-08-07T11:06:42;100100.44;;;17.55;64.88
52469;BME280;38381;53.688;10.776;2023-08-07T11:11:46;100096.94;;;17.56;64.87
52469;BME280;38381;53.688;10.776;2023-08-07T11:16:47;100120.84;;;17.72;63.72
52469;BME280;38381;53.688;10.776;2023-08-07T11:21:48;100093.97;;;17.92;60.40
52469;BME280;38381;53.688;10.776;2023-08-07T11:26:49;100097.94;;;18.03;58.41
52469;BME280;38381;53.688;10.776;2023-08-07T11:31:51;100126.84;;;17.75;57.40
52469;BME280;38381;53.688;10.776;2023-08-07T11:36:52;100137.59;;;17.13;64.27
52469;BME280;38381;53.688;10.776;2023-08-07T11:41:54;100141.63;;;16.95;66.14
52469;BME280;38381;53.688;10.776;2023-08-07T11:46:55;100119.69;;;17.27;65.71
52469;BME280;38381;53.688;10.776;2023-08-07T11:51:55;100128.22;;;17.34;64.87
52469;BME280;38381;53.688;10.776;2023-08-07T11:56:56;100131.09;;;17.53;61.16
52469;BME280;38381;53.688;10.776;2023-08-07T12:01:56;100142.31;;;17.58;61.13
52469;BME280;38381;53.688;10.776;2023-08-07T12:06:57;100121.56;;;17.77;59.57
52469;BME280;38381;53.688;10.776;2023-08-07T12:11:58;100122.31;;;18.07;59.02
52469;BME280;38381;53.688;10.776;2023-08-07T12:17:01;100127.84;;;17.99;56.13
52469;BME280;38381;53.688;10.776;2023-08-07T12:22:02;100124.63;;;18.16;57.49
52469;BME280;38381;53.688;10.776;2023-08-07T12:27:05;100120.88;;;18.23;55.45
52469;BME280;38381;53.688;10.776;2023-08-07T12:32:06;100114.59;;;18.27;55.85
52469;BME280;38381;53.688;10.776;2023-08-07T12:37:06;100134.84;;;18.24;56.55
52469;BME280;38381;53.688;10.776;2023-08-07T12:42:07;100119.97;;;17.99;57.68
52469;BME280;38381;53.688;10.776;2023-08-07T12:47:07;100133.06;;;18.24;57.39
52469;BME280;38381;53.688;10.776;2023-08-07T12:52:08;100150.53;;;18.50;56.90
52469;BME280;38381;53.688;10.776;2023-08-07T12:57:08;100154.84;;;18.52;55.53
52469;BME280;38381;53.688;10.776;2023-08-07T13:02:08;100138.50;;;18.68;53.99
52469;BME280;38381;53.688;10.776;2023-08-07T13:07:09;100152.75;;;18.61;55.46
52469;BME280;38381;53.688;10.776;2023-08-07T13:12:10;100157.56;;;18.74;56.59
52469;BME280;38381;53.688;10.776;2023-08-07T13:17:10;100155.44;;;18.60;56.94
52469;BME280;38381;53.688;10.776;2023-08-07T13:22:10;100146.84;;;18.80;55.71
52469;BME280;38381;53.688;10.776;2023-08-07T13:27:11;100161.38;;;18.65;54.24
52469;BME280;38381;53.688;10.776;2023-08-07T13:32:11;100173.59;;;18.66;54.95
52469;BME280;38381;53.688;10.776;2023-08-07T13:37:13;100186.28;;;18.55;55.32
52469;BME280;38381;53.688;10.776;2023-08-07T13:42:13;100223.78;;;18.06;57.41
52469;BME280;38381;53.688;10.776;2023-08-07T13:47:14;100230.44;;;17.90;61.38
52469;BME280;38381;53.688;10.776;2023-08-07T13:52:14;100229.50;;;17.64;61.51
52469;BME280;38381;53.688;10.776;2023-08-07T13:57:15;100216.03;;;17.75;60.60
52469;BME280;38381;53.688;10.776;2023-08-07T14:02:16;100240.06;;;17.61;60.55
52469;BME280;38381;53.688;10.776;2023-08-07T14:07:16;100251.16;;;17.69;60.03
52469;BME280;38381;53.688;10.776;2023-08-07T14:12:16;100256.03;;;17.83;59.93
52469;BME280;38381;53.688;10.776;2023-08-07T14:17:17;100274.72;;;17.71;59.08
52469;BME280;38381;53.688;10.776;2023-08-07T14:22:17;100263.66;;;17.61;59.72
52469;BME280;38381;53.688;10.776;2023-08-07T14:27:18;100273.97;;;17.67;60.73
52469;BME280;38381;53.688;10.776;2023-08-07T14:32:18;100301.00;;;17.41;65.38
52469;BME280;38381;53.688;10.776;2023-08-07T14:37:18;100316.97;;;17.32;65.80
52469;BME280;38381;53.688;10.776;2023-08-07T14:42:19;100282.75;;;17.07;62.74
52469;BME280;38381;53.688;10.776;2023-08-07T14:47:19;100314.69;;;17.20;61.86
52469;BME280;38381;53.688;10.776;2023-08-07T14:52:20;100298.72;;;17.29;62.32
52469;BME280;38381;53.688;10.776;2023-08-07T14:57:20;100306.13;;;17.44;61.11
52469;BME280;38381;53.688;10.776;2023-08-07T15:02:20;100311.34;;;17.46;60.52
52469;BME280;38381;53.688;10.776;2023-08-07T15:07:21;100302.88;;;17.36;55.53
52469;BME280;38381;53.688;10.776;2023-08-07T15:12:21;100283.94;;;17.56;51.82
52469;BME280;38381;53.688;10.776;2023-08-07T15:17:22;100309.94;;;17.64;51.60
52469;BME280;38381;53.688;10.776;2023-08-07T15:22:22;100315.00;;;17.70;51.49
52469;BME280;38381;53.688;10.776;2023-08-07T15:27:23;100315.53;;;17.52;51.71
52469;BME280;38381;53.688;10.776;2023-08-07T15:32:23;100327.94;;;17.76;53.01
52469;BME280;38381;53.688;10.776;2023-08-07T15:37:24;100325.66;;;17.64;52.67
52469;BME280;38381;53.688;10.776;2023-08-07T15:42:24;100328.50;;;17.56;53.16
52469;BME280;38381;53.688;10.776;2023-08-07T15:47:25;100350.66;;;17.46;52.61
52469;BME280;38381;53.688;10.776;2023-08-07T15:52:26;100350.00;;;17.38;55.17
52469;BME280;38381;53.688;10.776;2023-08-07T15:57:26;100332.56;;;17.66;56.41
52469;BME280;38381;53.688;10.776;2023-08-07T16:02:27;100329.19;;;17.63;56.25
52469;BME280;38381;53.688;10.776;2023-08-07T16:07:27;100319.91;;;17.51;55.22
52469;BME280;38381;53.688;10.776;2023-08-07T16:12:28;100348.03;;;17.46;53.68
52469;BME280;38381;53.688;10.776;2023-08-07T16:17:29;100348.88;;;17.46;51.95
52469;BME280;38381;53.688;10.776;2023-08-07T16:22:29;100350.69;;;17.13;57.21
52469;BME280;38381;53.688;10.776;2023-08-07T16:27:30;100345.78;;;17.32;57.01
52469;BME280;38381;53.688;10.776;2023-08-07T16:32:32;100351.03;;;17.32;53.25
52469;BME280;38381;53.688;10.776;2023-08-07T16:37:33;100343.88;;;17.06;50.87
52469;BME280;38381;53.688;10.776;2023-08-07T16:42:34;100358.88;;;17.01;50.41
52469;BME280;38381;53.688;10.776;2023-08-07T16:47:34;100330.75;;;17.07;50.25
52469;BME280;38381;53.688;10.776;2023-08-07T16:52:35;100355.94;;;17.13;51.00
52469;BME280;38381;53.688;10.776;2023-08-07T16:57:35;100351.72;;;17.07;50.42
52469;BME280;38381;53.688;10.776;2023-08-07T17:02:36;100369.75;;;16.85;51.26
52469;BME280;38381;53.688;10.776;2023-08-07T17:07:36;100352.50;;;17.11;50.80
52469;BME280;38381;53.688;10.776;2023-08-07T17:12:37;100356.88;;;17.11;51.43
52469;BME280;38381;53.688;10.776;2023-08-07T17:17:37;100361.50;;;17.01;51.36
52469;BME280;38381;53.688;10.776;2023-08-07T17:22:38;100363.44;;;16.94;52.90
52469;BME280;38381;53.688;10.776;2023-08-07T17:27:38;100359.25;;;16.87;53.96
52469;BME280;38381;53.688;10.776;2023-08-07T17:32:39;100373.53;;;16.74;55.95
52469;BME280;38381;53.688;10.776;2023-08-07T17:37:39;100357.00;;;16.72;57.14
52469;BME280;38381;53.688;10.776;2023-08-07T17:42:40;100349.13;;;16.72;56.67
52469;BME280;38381;53.688;10.776;2023-08-07T17:47:40;100357.19;;;16.64;56.52
52469;BME280;38381;53.688;10.776;2023-08-07T17:52:41;100345.28;;;16.50;55.81
52469;BME280;38381;53.688;10.776;2023-08-07T17:57:41;100352.28;;;16.50;55.16
52469;BME280;38381;53.688;10.776;2023-08-07T18:02:42;100355.44;;;16.28;54.95
52469;BME280;38381;53.688;10.776;2023-08-07T18:07:42;100378.84;;;16.35;54.44
52469;BME280;38381;53.688;10.776;2023-08-07T18:12:42;100383.53;;;16.20;55.02
52469;BME280;38381;53.688;10.776;2023-08-07T18:17:43;100392.34;;;16.16;55.49
52469;BME280;38381;53.688;10.776;2023-08-07T18:22:44;100396.66;;;16.17;56.55
52469;BME280;38381;53.688;10.776;2023-08-07T18:27:44;100399.91;;;15.89;60.48
52469;BME280;38381;53.688;10.776;2023-08-07T18:32:45;100388.13;;;15.67;62.82
52469;BME280;38381;53.688;10.776;2023-08-07T18:37:45;100395.16;;;15.65;64.18
52469;BME280;38381;53.688;10.776;2023-08-07T18:42:46;100388.38;;;15.55;65.50
52469;BME280;38381;53.688;10.776;2023-08-07T18:47:46;100391.75;;;15.60;65.70
52469;BME280;38381;53.688;10.776;2023-08-07T18:52:47;100396.97;;;15.60;65.84
52469;BME280;38381;53.688;10.776;2023-08-07T18:57:47;100395.31;;;15.56;66.30
52469;BME280;38381;53.688;10.776;2023-08-07T19:02:48;100411.19;;;15.46;66.48
52469;BME280;38381;53.688;10.776;2023-08-07T19:07:48;100406.81;;;15.47;66.49
52469;BME280;38381;53.688;10.776;2023-08-07T19:12:48;100414.53;;;15.53;67.43
52469;BME280;38381;53.688;10.776;2023-08-07T19:17:50;100419.09;;;15.43;68.58
52469;BME280;38381;53.688;10.776;2023-08-07T19:22:50;100412.44;;;15.25;69.70
52469;BME280;38381;53.688;10.776;2023-08-07T19:27:50;100414.38;;;15.16;69.09
52469;BME280;38381;53.688;10.776;2023-08-07T19:32:51;100418.81;;;15.11;69.46
52469;BME280;38381;53.688;10.776;2023-08-07T19:37:52;100437.09;;;15.11;70.20
52469;BME280;38381;53.688;10.776;2023-08-07T19:42:52;100436.47;;;14.96;71.83
52469;BME280;38381;53.688;10.776;2023-08-07T19:47:53;100422.56;;;14.96;73.93
52469;BME280;38381;53.688;10.776;2023-08-07T19:52:54;100440.22;;;14.80;73.41
52469;BME280;38381;53.688;10.776;2023-08-07T19:57:55;100439.53;;;14.68;73.93
52469;BME280;38381;53.688;10.776;2023-08-07T20:02:55;100440.28;;;14.77;74.66
52469;BME280;38381;53.688;10.776;2023-08-07T20:07:55;100421.19;;;14.75;76.03
52469;BME280;38381;53.688;10.776;2023-08-07T20:12:56;100429.03;;;14.72;76.75
52469;BME280;38381;53.688;10.776;2023-08-07T20:17:56;100439.69;;;14.58;77.87
52469;BME280;38381;53.688;10.776;2023-08-07T20:22:57;100434.44;;;14.59;78.63
52469;BME280;38381;53.688;10.776;2023-08-07T20:27:57;100431.81;;;14.61;78.87
52469;BME280;38381;53.688;10.776;2023-08-07T20:32:58;100436.19;;;14.60;78.57
52469;BME280;38381;53.688;10.776;2023-08-07T20:37:58;100437.06;;;14.58;78.23
52469;BME280;38381;53.688;10.776;2023-08-07T20:42:59;100434.50;;;14.56;77.53
52469;BME280;38381;53.688;10.776;2023-08-07T20:47:59;100443.28;;;14.49;77.34
52469;BME280;38381;53.688;10.776;2023-08-07T20:53:00;100437.41;;;14.35;76.93
52469;BME280;38381;53.688;10.776;2023-08-07T20:58:00;100443.38;;;14.41;76.20
52469;BME280;38381;53.688;10.776;2023-08-07T21:03:00;100441.59;;;14.45;75.79
52469;BME280;38381;53.688;10.776;2023-08-07T21:08:03;100432.94;;;14.41;75.75
52469;BME280;38381;53.688;10.776;2023-08-07T21:13:03;100421.72;;;14.36;75.89
52469;BME280;38381;53.688;10.776;2023-08-07T21:18:04;100433.03;;;14.35;76.43
52469;BME280;38381;53.688;10.776;2023-08-07T21:23:04;100423.66;;;14.23;76.66
52469;BME280;38381;53.688;10.776;2023-08-07T21:28:05;100426.19;;;14.28;76.10
52469;BME280;38381;53.688;10.776;2023-08-07T21:33:05;100413.06;;;14.34;75.46
52469;BME280;38381;53.688;10.776;2023-08-07T21:38:06;100425.25;;;14.32;75.67
52469;BME280;38381;53.688;10.776;2023-08-07T21:43:07;100422.56;;;14.38;75.63
52469;BME280;38381;53.688;10.776;2023-08-07T21:48:08;100427.88;;;14.32;77.30
52469;BME280;38381;53.688;10.776;2023-08-07T21:53:08;100410.78;;;14.11;79.65
52469;BME280;38381;53.688;10.776;2023-08-07T21:58:09;100415.28;;;14.00;80.78
52469;BME280;38381;53.688;10.776;2023-08-07T22:03:09;100419.72;;;13.93;81.80
52469;BME280;38381;53.688;10.776;2023-08-07T22:08:09;100423.09;;;13.98;81.69
52469;BME280;38381;53.688;10.776;2023-08-07T22:13:10;100410.28;;;13.84;81.28
52469;BME280;38381;53.688;10.776;2023-08-07T22:18:11;100420.88;;;13.69;80.74
52469;BME280;38381;53.688;10.776;2023-08-07T22:23:13;100410.41;;;13.72;80.03
52469;BME280;38381;53.688;10.776;2023-08-07T22:28:13;100414.72;;;13.75;79.63
52469;BME280;38381;53.688;10.776;2023-08-07T22:33:13;100408.81;;;13.59;80.27
52469;BME280;38381;53.688;10.776;2023-08-07T22:38:14;100405.22;;;13.69;79.60
52469;BME280;38381;53.688;10.776;2023-08-07T22:43:14;100406.28;;;13.56;79.65
52469;BME280;38381;53.688;10.776;2023-08-07T22:48:15;100418.41;;;13.55;79.43
52469;BME280;38381;53.688;10.776;2023-08-07T22:53:15;100411.75;;;13.30;80.29
52469;BME280;38381;53.688;10.776;2023-08-07T22:58:16;100413.41;;;13.38;80.52
52469;BME280;38381;53.688;10.776;2023-08-07T23:03:17;100410.84;;;13.35;81.09
52469;BME280;38381;53.688;10.776;2023-08-07T23:08:17;100407.44;;;13.24;80.40
52469;BME280;38381;53.688;10.776;2023-08-07T23:13:17;100396.19;;;13.20;79.78
52469;BME280;38381;53.688;10.776;2023-08-07T23:18:18;100417.00;;;13.20;79.12
52469;BME280;38381;53.688;10.776;2023-08-07T23:23:18;100402.22;;;13.24;78.75
52469;BME280;38381;53.688;10.776;2023-08-07T23:28:19;100393.53;;;13.31;78.70
52469;BME280;38381;53.688;10.776;2023-08-07T23:33:19;100407.41;;;13.27;78.37
52469;BME280;38381;53.688;10.776;2023-08-07T23:38:20;100404.81;;;13.24;78.86
52469;BME280;38381;53.688;10.776;2023-08-07T23:43:20;100408.34;;;13.18;79.25
52469;BME280;38381;53.688;10.776;2023-08-07T23:48:20;100391.81;;;13.24;79.28
52469;BME280;38381;53.688;10.776;2023-08-07T23:53:21;100384.91;;;13.20;79.36
52469;BME280;38381;53.688;10.776;2023-08-07T23:58:21;100365.75;;;13.24;79.35
